sensor_id;sensor_type;location;lat;lon;timestamp;P1;durP1;ratioP1;P2;durP2;ratioP2
2966;SDS011;1493;51.496;7.210;2023-01-31T00:00:28;15.43;;;4.00;;
2966;SDS011;1493;51.496;7.210;2023-01-31T00:02:55;17.20;;;3.87;;
2966;SDS011;1493;51.496;7.210;2023-01-31T00:05:22;12.23;;;4.20;;
2966;SDS011;1493;51.496;7.210;2023-01-31T00:07:49;12.60;;;3.50;;
2966;SDS011;1493;51.496;7.210;2023-01-31T00:10:17;17.20;;;4.70;;
2966;SDS011;1493;51.496;7.210;2023-01-31T00:12:44;18.00;;;4.00;;
2966;SDS011;1493;51.496;7.210;2023-01-31T00:15:11;15.47;;;4.53;;
2966;SDS011;1493;51.496;7.210;2023-01-31T00:17:40;18.37;;;3.57;;
2966;SDS011;1493;51.496;7.210;2023-01-31T00:20:10;15.13;;;3.27;;
2966;SDS011;1493;51.496;7.210;2023-01-31T00:22:37;14.50;;;3.37;;
2966;SDS011;1493;51.496;7.210;2023-01-31T00:25:06;10.57;;;4.67;;
2966;SDS011;1493;51.496;7.210;2023-01-31T00:27:34;12.63;;;3.30;;
2966;SDS011;1493;51.496;7.210;2023-01-31T00:30:02;13.23;;;4.00;;
2966;SDS011;1493;51.496;7.210;2023-01-31T00:32:29;18.13;;;4.33;;
2966;SDS011;1493;51.496;7.210;2023-01-31T00:34:56;9.83;;;3.93;;
2966;SDS011;1493;51.496;7.210;2023-01-31T00:37:23;12.33;;;3.07;;
2966;SDS011;1493;51.496;7.210;2023-01-31T00:39:49;19.43;;;3.80;;
2966;SDS011;1493;51.496;7.210;2023-01-31T00:42:16;11.97;;;3.37;;
2966;SDS011;1493;51.496;7.210;2023-01-31T00:44:44;14.57;;;4.10;;
2966;SDS011;1493;51.496;7.210;2023-01-31T00:47:11;11.80;;;3.70;;
2966;SDS011;1493;51.496;7.210;2023-01-31T00:50:17;14.93;;;3.97;;
2966;SDS011;1493;51.496;7.210;2023-01-31T00:53:05;11.20;;;3.50;;
2966;SDS011;1493;51.496;7.210;2023-01-31T00:55:48;11.53;;;3.30;;
2966;SDS011;1493;51.496;7.210;2023-01-31T00:58:15;14.30;;;3.70;;
2966;SDS011;1493;51.496;7.210;2023-01-31T01:00:43;15.43;;;4.40;;
2966;SDS011;1493;51.496;7.210;2023-01-31T01:03:10;12.67;;;3.50;;
2966;SDS011;1493;51.496;7.210;2023-01-31T01:05:37;12.20;;;3.53;;
2966;SDS011;1493;51.496;7.210;2023-01-31T01:08:04;14.53;;;3.90;;
2966;SDS011;1493;51.496;7.210;2023-01-31T01:10:31;11.40;;;3.50;;
2966;SDS011;1493;51.496;7.210;2023-01-31T01:12:58;16.20;;;4.20;;
2966;SDS011;1493;51.496;7.210;2023-01-31T01:15:25;12.33;;;3.70;;
2966;SDS011;1493;51.496;7.210;2023-01-31T01:17:53;15.67;;;3.27;;
2966;SDS011;1493;51.496;7.210;2023-01-31T01:20:21;15.17;;;4.40;;
2966;SDS011;1493;51.496;7.210;2023-01-31T01:22:48;8.73;;;3.57;;
2966;SDS011;1493;51.496;7.210;2023-01-31T01:25:17;20.43;;;4.03;;
2966;SDS011;1493;51.496;7.210;2023-01-31T01:27:44;15.63;;;3.73;;
2966;SDS011;1493;51.496;7.210;2023-01-31T01:30:11;14.07;;;3.53;;
2966;SDS011;1493;51.496;7.210;2023-01-31T01:32:38;18.73;;;4.30;;
2966;SDS011;1493;51.496;7.210;2023-01-31T01:35:06;10.23;;;3.17;;
2966;SDS011;1493;51.496;7.210;2023-01-31T01:37:34;21.17;;;5.73;;
2966;SDS011;1493;51.496;7.210;2023-01-31T01:40:01;14.53;;;4.10;;
2966;SDS011;1493;51.496;7.210;2023-01-31T01:42:29;14.30;;;4.60;;
2966;SDS011;1493;51.496;7.210;2023-01-31T01:45:00;17.43;;;4.57;;
2966;SDS011;1493;51.496;7.210;2023-01-31T01:47:31;22.93;;;3.80;;
2966;SDS011;1493;51.496;7.210;2023-01-31T01:50:02;30.20;;;5.90;;
2966;SDS011;1493;51.496;7.210;2023-01-31T01:52:41;13.77;;;4.40;;
2966;SDS011;1493;51.496;7.210;2023-01-31T01:55:17;11.40;;;6.43;;
2966;SDS011;1493;51.496;7.210;2023-01-31T01:57:52;20.30;;;5.00;;
2966;SDS011;1493;51.496;7.210;2023-01-31T02:00:27;18.83;;;4.80;;
2966;SDS011;1493;51.496;7.210;2023-01-31T02:03:12;15.30;;;4.20;;
2966;SDS011;1493;51.496;7.210;2023-01-31T02:05:43;17.10;;;4.60;;
2966;SDS011;1493;51.496;7.210;2023-01-31T02:08:12;17.83;;;4.80;;
2966;SDS011;1493;51.496;7.210;2023-01-31T02:10:45;14.10;;;3.13;;
2966;SDS011;1493;51.496;7.210;2023-01-31T02:13:17;12.27;;;5.47;;
2966;SDS011;1493;51.496;7.210;2023-01-31T02:15:44;13.10;;;3.50;;
2966;SDS011;1493;51.496;7.210;2023-01-31T02:18:11;19.53;;;4.30;;
2966;SDS011;1493;51.496;7.210;2023-01-31T02:20:53;15.00;;;3.27;;
2966;SDS011;1493;51.496;7.210;2023-01-31T02:23:59;13.87;;;4.30;;
2966;SDS011;1493;51.496;7.210;2023-01-31T02:30:06;13.57;;;3.83;;
2966;SDS011;1493;51.496;7.210;2023-01-31T02:32:54;16.60;;;4.03;;
2966;SDS011;1493;51.496;7.210;2023-01-31T02:35:30;15.40;;;3.17;;
2966;SDS011;1493;51.496;7.210;2023-01-31T02:38:08;8.13;;;3.20;;
2966;SDS011;1493;51.496;7.210;2023-01-31T02:40:46;10.23;;;3.60;;
2966;SDS011;1493;51.496;7.210;2023-01-31T02:43:18;11.90;;;3.30;;
2966;SDS011;1493;51.496;7.210;2023-01-31T02:45:51;12.17;;;3.60;;
2966;SDS011;1493;51.496;7.210;2023-01-31T02:48:30;17.83;;;3.60;;
2966;SDS011;1493;51.496;7.210;2023-01-31T02:51:07;21.73;;;4.20;;
2966;SDS011;1493;51.496;7.210;2023-01-31T02:53:39;9.60;;;3.77;;
2966;SDS011;1493;51.496;7.210;2023-01-31T02:56:10;10.77;;;3.97;;
2966;SDS011;1493;51.496;7.210;2023-01-31T02:58:45;13.57;;;3.53;;
2966;SDS011;1493;51.496;7.210;2023-01-31T03:01:20;18.03;;;3.77;;
2966;SDS011;1493;51.496;7.210;2023-01-31T03:03:53;14.20;;;4.53;;
2966;SDS011;1493;51.496;7.210;2023-01-31T03:12:21;24.03;;;6.37;;
2966;SDS011;1493;51.496;7.210;2023-01-31T03:15:00;16.87;;;4.40;;
2966;SDS011;1493;51.496;7.210;2023-01-31T03:17:50;7.23;;;2.20;;
2966;SDS011;1493;51.496;7.210;2023-01-31T03:20:26;12.87;;;4.27;;
2966;SDS011;1493;51.496;7.210;2023-01-31T03:23:00;12.80;;;4.00;;
2966;SDS011;1493;51.496;7.210;2023-01-31T03:25:31;20.57;;;3.50;;
2966;SDS011;1493;51.496;7.210;2023-01-31T03:28:03;14.27;;;4.63;;
2966;SDS011;1493;51.496;7.210;2023-01-31T03:30:39;12.67;;;4.10;;
2966;SDS011;1493;51.496;7.210;2023-01-31T03:33:12;13.03;;;4.73;;
2966;SDS011;1493;51.496;7.210;2023-01-31T03:35:44;12.33;;;4.00;;
2966;SDS011;1493;51.496;7.210;2023-01-31T03:38:17;11.57;;;3.90;;
2966;SDS011;1493;51.496;7.210;2023-01-31T03:40:48;19.67;;;4.63;;
2966;SDS011;1493;51.496;7.210;2023-01-31T03:43:19;13.03;;;4.70;;
2966;SDS011;1493;51.496;7.210;2023-01-31T03:45:52;10.97;;;4.30;;
2966;SDS011;1493;51.496;7.210;2023-01-31T03:48:23;13.27;;;3.57;;
2966;SDS011;1493;51.496;7.210;2023-01-31T03:50:55;25.27;;;5.00;;
2966;SDS011;1493;51.496;7.210;2023-01-31T03:53:25;15.03;;;4.90;;
2966;SDS011;1493;51.496;7.210;2023-01-31T03:55:57;15.93;;;3.47;;
2966;SDS011;1493;51.496;7.210;2023-01-31T03:58:28;13.77;;;3.73;;
2966;SDS011;1493;51.496;7.210;2023-01-31T04:00:58;17.63;;;4.63;;
2966;SDS011;1493;51.496;7.210;2023-01-31T04:03:29;12.37;;;3.60;;
2966;SDS011;1493;51.496;7.210;2023-01-31T04:06:03;17.30;;;4.53;;
2966;SDS011;1493;51.496;7.210;2023-01-31T04:08:31;23.17;;;4.63;;
2966;SDS011;1493;51.496;7.210;2023-01-31T04:10:59;9.40;;;3.47;;
2966;SDS011;1493;51.496;7.210;2023-01-31T04:13:30;10.03;;;3.40;;
2966;SDS011;1493;51.496;7.210;2023-01-31T04:15:56;12.87;;;3.97;;
2966;SDS011;1493;51.496;7.210;2023-01-31T04:18:24;10.30;;;3.90;;
2966;SDS011;1493;51.496;7.210;2023-01-31T04:20:51;8.70;;;3.00;;
2966;SDS011;1493;51.496;7.210;2023-01-31T04:23:19;11.90;;;3.03;;
2966;SDS011;1493;51.496;7.210;2023-01-31T04:25:46;20.13;;;4.17;;
2966;SDS011;1493;51.496;7.210;2023-01-31T04:28:12;17.23;;;4.03;;
2966;SDS011;1493;51.496;7.210;2023-01-31T04:30:39;15.80;;;4.13;;
2966;SDS011;1493;51.496;7.210;2023-01-31T04:33:06;15.60;;;4.23;;
2966;SDS011;1493;51.496;7.210;2023-01-31T04:35:33;8.70;;;3.60;;
2966;SDS011;1493;51.496;7.210;2023-01-31T04:38:00;19.20;;;4.97;;
2966;SDS011;1493;51.496;7.210;2023-01-31T04:40:28;13.03;;;4.13;;
2966;SDS011;1493;51.496;7.210;2023-01-31T04:42:55;19.10;;;4.60;;
2966;SDS011;1493;51.496;7.210;2023-01-31T04:45:21;13.77;;;5.37;;
2966;SDS011;1493;51.496;7.210;2023-01-31T04:47:48;14.70;;;4.50;;
2966;SDS011;1493;51.496;7.210;2023-01-31T04:50:15;20.23;;;5.10;;
2966;SDS011;1493;51.496;7.210;2023-01-31T04:52:42;16.83;;;4.30;;
2966;SDS011;1493;51.496;7.210;2023-01-31T04:55:11;16.53;;;5.37;;
2966;SDS011;1493;51.496;7.210;2023-01-31T04:57:39;12.70;;;4.73;;
2966;SDS011;1493;51.496;7.210;2023-01-31T05:00:06;11.70;;;4.23;;
2966;SDS011;1493;51.496;7.210;2023-01-31T05:02:34;20.00;;;5.90;;
2966;SDS011;1493;51.496;7.210;2023-01-31T05:05:01;12.60;;;4.50;;
2966;SDS011;1493;51.496;7.210;2023-01-31T05:07:28;22.73;;;6.27;;
2966;SDS011;1493;51.496;7.210;2023-01-31T05:09:55;22.17;;;6.50;;
2966;SDS011;1493;51.496;7.210;2023-01-31T05:12:22;14.87;;;6.23;;
2966;SDS011;1493;51.496;7.210;2023-01-31T05:14:50;17.23;;;5.30;;
2966;SDS011;1493;51.496;7.210;2023-01-31T05:17:16;20.90;;;5.77;;
2966;SDS011;1493;51.496;7.210;2023-01-31T05:19:49;12.20;;;4.60;;
2966;SDS011;1493;51.496;7.210;2023-01-31T05:22:16;16.27;;;6.13;;
2966;SDS011;1493;51.496;7.210;2023-01-31T05:24:46;17.00;;;6.47;;
2966;SDS011;1493;51.496;7.210;2023-01-31T05:27:13;20.97;;;6.40;;
2966;SDS011;1493;51.496;7.210;2023-01-31T05:29:41;20.13;;;6.73;;
2966;SDS011;1493;51.496;7.210;2023-01-31T05:32:10;18.43;;;7.43;;
2966;SDS011;1493;51.496;7.210;2023-01-31T05:34:39;15.73;;;5.60;;
2966;SDS011;1493;51.496;7.210;2023-01-31T05:37:06;19.07;;;5.57;;
2966;SDS011;1493;51.496;7.210;2023-01-31T05:39:33;15.77;;;5.97;;
2966;SDS011;1493;51.496;7.210;2023-01-31T05:42:00;14.63;;;5.03;;
2966;SDS011;1493;51.496;7.210;2023-01-31T05:44:27;12.97;;;5.47;;
2966;SDS011;1493;51.496;7.210;2023-01-31T05:46:54;20.27;;;6.33;;
2966;SDS011;1493;51.496;7.210;2023-01-31T05:49:22;16.80;;;5.47;;
2966;SDS011;1493;51.496;7.210;2023-01-31T05:51:49;12.67;;;5.60;;
2966;SDS011;1493;51.496;7.210;2023-01-31T05:54:15;15.90;;;6.20;;
2966;SDS011;1493;51.496;7.210;2023-01-31T05:56:42;11.37;;;5.10;;
2966;SDS011;1493;51.496;7.210;2023-01-31T05:59:09;17.00;;;5.37;;
2966;SDS011;1493;51.496;7.210;2023-01-31T06:01:36;17.33;;;6.00;;
2966;SDS011;1493;51.496;7.210;2023-01-31T06:04:03;16.33;;;5.63;;
2966;SDS011;1493;51.496;7.210;2023-01-31T06:06:31;14.50;;;6.33;;
2966;SDS011;1493;51.496;7.210;2023-01-31T06:08:58;14.37;;;5.67;;
2966;SDS011;1493;51.496;7.210;2023-01-31T06:11:25;15.93;;;6.57;;
2966;SDS011;1493;51.496;7.210;2023-01-31T06:13:52;23.20;;;8.23;;
2966;SDS011;1493;51.496;7.210;2023-01-31T06:16:21;21.80;;;6.37;;
2966;SDS011;1493;51.496;7.210;2023-01-31T06:18:48;12.90;;;6.70;;
2966;SDS011;1493;51.496;7.210;2023-01-31T06:21:15;12.47;;;6.60;;
2966;SDS011;1493;51.496;7.210;2023-01-31T06:23:43;15.30;;;5.90;;
2966;SDS011;1493;51.496;7.210;2023-01-31T06:26:11;16.40;;;6.93;;
2966;SDS011;1493;51.496;7.210;2023-01-31T06:28:38;22.50;;;7.07;;
2966;SDS011;1493;51.496;7.210;2023-01-31T06:31:06;16.17;;;5.53;;
2966;SDS011;1493;51.496;7.210;2023-01-31T06:33:33;20.60;;;8.07;;
2966;SDS011;1493;51.496;7.210;2023-01-31T06:36:00;15.50;;;6.77;;
2966;SDS011;1493;51.496;7.210;2023-01-31T06:38:27;15.60;;;6.77;;
2966;SDS011;1493;51.496;7.210;2023-01-31T06:40:55;18.87;;;5.73;;
2966;SDS011;1493;51.496;7.210;2023-01-31T06:43:22;15.77;;;5.33;;
2966;SDS011;1493;51.496;7.210;2023-01-31T06:45:49;15.13;;;5.50;;
2966;SDS011;1493;51.496;7.210;2023-01-31T06:48:16;21.80;;;7.90;;
2966;SDS011;1493;51.496;7.210;2023-01-31T06:50:43;17.00;;;7.43;;
2966;SDS011;1493;51.496;7.210;2023-01-31T06:53:10;14.83;;;5.97;;
2966;SDS011;1493;51.496;7.210;2023-01-31T06:55:37;19.00;;;7.27;;
2966;SDS011;1493;51.496;7.210;2023-01-31T06:58:05;14.60;;;7.07;;
2966;SDS011;1493;51.496;7.210;2023-01-31T07:00:32;18.53;;;7.10;;
2966;SDS011;1493;51.496;7.210;2023-01-31T07:02:59;18.13;;;6.97;;
2966;SDS011;1493;51.496;7.210;2023-01-31T07:05:26;20.57;;;6.70;;
2966;SDS011;1493;51.496;7.210;2023-01-31T07:07:53;17.10;;;6.30;;
2966;SDS011;1493;51.496;7.210;2023-01-31T07:10:20;14.23;;;5.80;;
2966;SDS011;1493;51.496;7.210;2023-01-31T07:12:46;17.50;;;7.80;;
2966;SDS011;1493;51.496;7.210;2023-01-31T07:15:15;16.00;;;6.13;;
2966;SDS011;1493;51.496;7.210;2023-01-31T07:17:42;24.07;;;7.30;;
2966;SDS011;1493;51.496;7.210;2023-01-31T07:20:09;24.33;;;7.03;;
2966;SDS011;1493;51.496;7.210;2023-01-31T07:22:37;14.17;;;6.10;;
2966;SDS011;1493;51.496;7.210;2023-01-31T07:25:05;16.87;;;6.80;;
2966;SDS011;1493;51.496;7.210;2023-01-31T07:27:32;13.77;;;6.30;;
2966;SDS011;1493;51.496;7.210;2023-01-31T07:29:59;19.00;;;7.20;;
2966;SDS011;1493;51.496;7.210;2023-01-31T07:32:28;18.63;;;6.43;;
2966;SDS011;1493;51.496;7.210;2023-01-31T07:34:55;11.13;;;6.77;;
2966;SDS011;1493;51.496;7.210;2023-01-31T07:37:22;16.80;;;6.00;;
2966;SDS011;1493;51.496;7.210;2023-01-31T07:39:49;19.17;;;6.83;;
2966;SDS011;1493;51.496;7.210;2023-01-31T07:42:16;17.90;;;6.40;;
2966;SDS011;1493;51.496;7.210;2023-01-31T07:44:43;16.70;;;7.57;;
2966;SDS011;1493;51.496;7.210;2023-01-31T07:47:10;17.43;;;6.50;;
2966;SDS011;1493;51.496;7.210;2023-01-31T07:49:38;18.90;;;6.33;;
2966;SDS011;1493;51.496;7.210;2023-01-31T07:52:05;16.33;;;6.17;;
2966;SDS011;1493;51.496;7.210;2023-01-31T07:54:31;16.60;;;6.67;;
2966;SDS011;1493;51.496;7.210;2023-01-31T07:56:58;24.43;;;7.03;;
2966;SDS011;1493;51.496;7.210;2023-01-31T07:59:25;15.40;;;5.17;;
2966;SDS011;1493;51.496;7.210;2023-01-31T08:01:52;17.90;;;6.33;;
2966;SDS011;1493;51.496;7.210;2023-01-31T08:04:38;14.80;;;6.17;;
2966;SDS011;1493;51.496;7.210;2023-01-31T08:07:04;17.47;;;6.07;;
2966;SDS011;1493;51.496;7.210;2023-01-31T08:09:31;22.30;;;7.10;;
2966;SDS011;1493;51.496;7.210;2023-01-31T08:11:58;13.27;;;5.90;;
2966;SDS011;1493;51.496;7.210;2023-01-31T08:14:25;25.70;;;7.87;;
2966;SDS011;1493;51.496;7.210;2023-01-31T08:16:52;17.30;;;6.03;;
2966;SDS011;1493;51.496;7.210;2023-01-31T08:19:19;17.80;;;5.50;;
2966;SDS011;1493;51.496;7.210;2023-01-31T08:21:47;26.07;;;7.00;;
2966;SDS011;1493;51.496;7.210;2023-01-31T08:24:14;21.20;;;4.80;;
2966;SDS011;1493;51.496;7.210;2023-01-31T08:26:41;17.63;;;5.33;;
2966;SDS011;1493;51.496;7.210;2023-01-31T08:29:08;14.43;;;5.17;;
2966;SDS011;1493;51.496;7.210;2023-01-31T08:31:35;11.87;;;5.53;;
2966;SDS011;1493;51.496;7.210;2023-01-31T08:34:02;16.80;;;6.00;;
2966;SDS011;1493;51.496;7.210;2023-01-31T08:36:30;21.97;;;6.30;;
2966;SDS011;1493;51.496;7.210;2023-01-31T08:38:58;17.27;;;5.63;;
2966;SDS011;1493;51.496;7.210;2023-01-31T08:41:25;12.53;;;5.60;;
2966;SDS011;1493;51.496;7.210;2023-01-31T08:43:53;18.30;;;6.60;;
2966;SDS011;1493;51.496;7.210;2023-01-31T08:46:21;14.83;;;5.57;;
2966;SDS011;1493;51.496;7.210;2023-01-31T08:48:49;19.77;;;7.10;;
2966;SDS011;1493;51.496;7.210;2023-01-31T08:51:16;14.53;;;6.00;;
2966;SDS011;1493;51.496;7.210;2023-01-31T08:53:43;12.67;;;4.57;;
2966;SDS011;1493;51.496;7.210;2023-01-31T08:56:12;16.93;;;4.90;;
2966;SDS011;1493;51.496;7.210;2023-01-31T08:58:39;19.77;;;6.00;;
2966;SDS011;1493;51.496;7.210;2023-01-31T09:01:07;12.13;;;5.97;;
2966;SDS011;1493;51.496;7.210;2023-01-31T09:03:36;19.20;;;6.50;;
2966;SDS011;1493;51.496;7.210;2023-01-31T09:06:04;15.87;;;6.40;;
2966;SDS011;1493;51.496;7.210;2023-01-31T09:08:33;13.47;;;5.23;;
2966;SDS011;1493;51.496;7.210;2023-01-31T09:11:00;18.37;;;5.93;;
2966;SDS011;1493;51.496;7.210;2023-01-31T09:13:29;12.30;;;4.50;;
2966;SDS011;1493;51.496;7.210;2023-01-31T09:15:56;16.23;;;5.13;;
2966;SDS011;1493;51.496;7.210;2023-01-31T09:18:24;9.73;;;4.57;;
2966;SDS011;1493;51.496;7.210;2023-01-31T09:20:51;14.50;;;5.83;;
2966;SDS011;1493;51.496;7.210;2023-01-31T09:23:18;14.57;;;5.20;;
2966;SDS011;1493;51.496;7.210;2023-01-31T09:25:50;14.43;;;4.80;;
2966;SDS011;1493;51.496;7.210;2023-01-31T09:28:18;16.60;;;5.60;;
2966;SDS011;1493;51.496;7.210;2023-01-31T09:30:47;15.70;;;6.40;;
2966;SDS011;1493;51.496;7.210;2023-01-31T09:33:14;10.43;;;4.40;;
2966;SDS011;1493;51.496;7.210;2023-01-31T09:35:40;8.57;;;4.10;;
2966;SDS011;1493;51.496;7.210;2023-01-31T09:38:07;18.63;;;6.40;;
2966;SDS011;1493;51.496;7.210;2023-01-31T09:40:34;16.10;;;5.60;;
2966;SDS011;1493;51.496;7.210;2023-01-31T09:43:05;13.00;;;5.03;;
2966;SDS011;1493;51.496;7.210;2023-01-31T09:45:36;18.60;;;5.83;;
2966;SDS011;1493;51.496;7.210;2023-01-31T09:48:12;15.37;;;5.40;;
2966;SDS011;1493;51.496;7.210;2023-01-31T09:50:45;17.60;;;4.27;;
2966;SDS011;1493;51.496;7.210;2023-01-31T09:53:15;9.77;;;3.60;;
2966;SDS011;1493;51.496;7.210;2023-01-31T09:55:47;15.70;;;4.10;;
2966;SDS011;1493;51.496;7.210;2023-01-31T09:58:21;13.27;;;3.70;;
2966;SDS011;1493;51.496;7.210;2023-01-31T10:00:56;7.23;;;4.10;;
2966;SDS011;1493;51.496;7.210;2023-01-31T10:03:36;15.33;;;4.10;;
2966;SDS011;1493;51.496;7.210;2023-01-31T10:06:14;13.17;;;4.27;;
2966;SDS011;1493;51.496;7.210;2023-01-31T10:08:47;11.10;;;4.27;;
2966;SDS011;1493;51.496;7.210;2023-01-31T10:11:23;14.77;;;4.77;;
2966;SDS011;1493;51.496;7.210;2023-01-31T10:14:00;11.23;;;4.20;;
2966;SDS011;1493;51.496;7.210;2023-01-31T10:16:39;9.67;;;3.50;;
2966;SDS011;1493;51.496;7.210;2023-01-31T10:19:12;15.27;;;3.17;;
2966;SDS011;1493;51.496;7.210;2023-01-31T10:21:42;12.90;;;4.60;;
2966;SDS011;1493;51.496;7.210;2023-01-31T10:24:16;12.27;;;3.60;;
2966;SDS011;1493;51.496;7.210;2023-01-31T10:26:50;9.20;;;4.57;;
2966;SDS011;1493;51.496;7.210;2023-01-31T10:29:22;12.50;;;4.67;;
2966;SDS011;1493;51.496;7.210;2023-01-31T10:31:54;12.93;;;3.40;;
2966;SDS011;1493;51.496;7.210;2023-01-31T10:34:27;24.13;;;4.63;;
2966;SDS011;1493;51.496;7.210;2023-01-31T10:36:56;13.40;;;4.70;;
2966;SDS011;1493;51.496;7.210;2023-01-31T10:39:27;14.77;;;4.00;;
2966;SDS011;1493;51.496;7.210;2023-01-31T10:42:02;10.53;;;4.13;;
2966;SDS011;1493;51.496;7.210;2023-01-31T10:44:39;13.90;;;5.27;;
2966;SDS011;1493;51.496;7.210;2023-01-31T10:47:10;14.37;;;4.93;;
2966;SDS011;1493;51.496;7.210;2023-01-31T10:49:40;16.07;;;4.37;;
2966;SDS011;1493;51.496;7.210;2023-01-31T10:52:14;13.10;;;3.83;;
2966;SDS011;1493;51.496;7.210;2023-01-31T10:54:54;8.40;;;4.73;;
2966;SDS011;1493;51.496;7.210;2023-01-31T10:57:29;9.00;;;3.93;;
2966;SDS011;1493;51.496;7.210;2023-01-31T10:59:57;8.80;;;4.63;;
2966;SDS011;1493;51.496;7.210;2023-01-31T11:02:24;14.23;;;5.20;;
2966;SDS011;1493;51.496;7.210;2023-01-31T11:04:54;10.43;;;4.63;;
2966;SDS011;1493;51.496;7.210;2023-01-31T11:07:23;9.70;;;4.67;;
2966;SDS011;1493;51.496;7.210;2023-01-31T11:09:53;9.53;;;4.53;;
2966;SDS011;1493;51.496;7.210;2023-01-31T11:12:38;14.37;;;3.83;;
2966;SDS011;1493;51.496;7.210;2023-01-31T11:15:13;10.23;;;4.10;;
2966;SDS011;1493;51.496;7.210;2023-01-31T11:17:42;15.83;;;5.40;;
2966;SDS011;1493;51.496;7.210;2023-01-31T11:20:20;16.27;;;5.00;;
2966;SDS011;1493;51.496;7.210;2023-01-31T11:22:50;16.67;;;4.83;;
2966;SDS011;1493;51.496;7.210;2023-01-31T11:25:18;12.87;;;5.00;;
2966;SDS011;1493;51.496;7.210;2023-01-31T11:27:46;10.13;;;3.97;;
2966;SDS011;1493;51.496;7.210;2023-01-31T11:30:19;14.17;;;5.00;;
2966;SDS011;1493;51.496;7.210;2023-01-31T11:32:48;20.07;;;5.60;;
2966;SDS011;1493;51.496;7.210;2023-01-31T11:35:23;15.00;;;4.20;;
2966;SDS011;1493;51.496;7.210;2023-01-31T11:37:52;14.60;;;4.20;;
2966;SDS011;1493;51.496;7.210;2023-01-31T11:40:21;12.07;;;4.40;;
2966;SDS011;1493;51.496;7.210;2023-01-31T11:42:54;12.30;;;4.77;;
2966;SDS011;1493;51.496;7.210;2023-01-31T11:45:22;10.00;;;4.87;;
2966;SDS011;1493;51.496;7.210;2023-01-31T11:47:52;11.43;;;4.90;;
2966;SDS011;1493;51.496;7.210;2023-01-31T11:50:21;9.60;;;4.20;;
2966;SDS011;1493;51.496;7.210;2023-01-31T11:52:55;16.90;;;4.70;;
2966;SDS011;1493;51.496;7.210;2023-01-31T11:55:23;11.50;;;4.70;;
2966;SDS011;1493;51.496;7.210;2023-01-31T11:57:53;9.00;;;4.60;;
2966;SDS011;1493;51.496;7.210;2023-01-31T12:00:23;12.00;;;5.17;;
2966;SDS011;1493;51.496;7.210;2023-01-31T12:02:52;13.33;;;5.67;;
2966;SDS011;1493;51.496;7.210;2023-01-31T12:05:32;16.63;;;6.13;;
2966;SDS011;1493;51.496;7.210;2023-01-31T12:08:02;14.00;;;5.60;;
2966;SDS011;1493;51.496;7.210;2023-01-31T12:10:30;14.87;;;6.63;;
2966;SDS011;1493;51.496;7.210;2023-01-31T12:13:01;10.20;;;5.60;;
2966;SDS011;1493;51.496;7.210;2023-01-31T12:15:36;15.40;;;5.73;;
2966;SDS011;1493;51.496;7.210;2023-01-31T12:18:14;12.33;;;5.53;;
2966;SDS011;1493;51.496;7.210;2023-01-31T12:20:52;12.77;;;6.03;;
2966;SDS011;1493;51.496;7.210;2023-01-31T12:23:29;15.87;;;6.50;;
2966;SDS011;1493;51.496;7.210;2023-01-31T12:26:03;19.20;;;5.50;;
2966;SDS011;1493;51.496;7.210;2023-01-31T12:28:39;12.73;;;6.87;;
2966;SDS011;1493;51.496;7.210;2023-01-31T12:34:16;13.67;;;8.73;;
2966;SDS011;1493;51.496;7.210;2023-01-31T12:36:58;14.53;;;6.07;;
2966;SDS011;1493;51.496;7.210;2023-01-31T12:39:46;14.47;;;6.43;;
2966;SDS011;1493;51.496;7.210;2023-01-31T12:42:42;13.83;;;7.00;;
2966;SDS011;1493;51.496;7.210;2023-01-31T12:45:22;14.77;;;7.63;;
2966;SDS011;1493;51.496;7.210;2023-01-31T12:50:52;15.87;;;8.37;;
2966;SDS011;1493;51.496;7.210;2023-01-31T12:53:29;14.73;;;8.00;;
2966;SDS011;1493;51.496;7.210;2023-01-31T12:56:12;12.27;;;8.70;;
2966;SDS011;1493;51.496;7.210;2023-01-31T12:58:57;13.63;;;7.73;;
2966;SDS011;1493;51.496;7.210;2023-01-31T13:01:32;14.73;;;8.83;;
2966;SDS011;1493;51.496;7.210;2023-01-31T13:04:06;15.20;;;8.90;;
2966;SDS011;1493;51.496;7.210;2023-01-31T13:06:52;19.90;;;8.50;;
2966;SDS011;1493;51.496;7.210;2023-01-31T13:09:24;20.90;;;9.83;;
2966;SDS011;1493;51.496;7.210;2023-01-31T13:11:55;16.10;;;9.53;;
2966;SDS011;1493;51.496;7.210;2023-01-31T13:14:28;16.13;;;9.20;;
2966;SDS011;1493;51.496;7.210;2023-01-31T13:16:58;13.53;;;9.23;;
2966;SDS011;1493;51.496;7.210;2023-01-31T13:19:28;15.10;;;10.30;;
2966;SDS011;1493;51.496;7.210;2023-01-31T13:22:00;19.80;;;10.50;;
2966;SDS011;1493;51.496;7.210;2023-01-31T13:24:32;24.27;;;10.40;;
2966;SDS011;1493;51.496;7.210;2023-01-31T13:27:03;14.57;;;11.00;;
2966;SDS011;1493;51.496;7.210;2023-01-31T13:29:37;21.90;;;11.17;;
2966;SDS011;1493;51.496;7.210;2023-01-31T13:32:08;19.27;;;10.73;;
2966;SDS011;1493;51.496;7.210;2023-01-31T13:34:40;15.03;;;11.40;;
2966;SDS011;1493;51.496;7.210;2023-01-31T13:37:13;19.53;;;11.90;;
2966;SDS011;1493;51.496;7.210;2023-01-31T13:39:47;17.70;;;11.70;;
2966;SDS011;1493;51.496;7.210;2023-01-31T13:42:17;21.90;;;13.37;;
2966;SDS011;1493;51.496;7.210;2023-01-31T13:44:45;20.60;;;13.90;;
2966;SDS011;1493;51.496;7.210;2023-01-31T13:47:13;27.27;;;12.47;;
2966;SDS011;1493;51.496;7.210;2023-01-31T13:49:46;18.03;;;12.83;;
2966;SDS011;1493;51.496;7.210;2023-01-31T13:52:18;19.20;;;12.50;;
2966;SDS011;1493;51.496;7.210;2023-01-31T13:54:50;23.33;;;14.20;;
2966;SDS011;1493;51.496;7.210;2023-01-31T13:57:22;24.90;;;12.77;;
2966;SDS011;1493;51.496;7.210;2023-01-31T13:59:52;29.03;;;12.50;;
2966;SDS011;1493;51.496;7.210;2023-01-31T14:02:21;18.83;;;13.70;;
2966;SDS011;1493;51.496;7.210;2023-01-31T14:04:48;17.87;;;13.93;;
2966;SDS011;1493;51.496;7.210;2023-01-31T14:07:19;21.03;;;13.80;;
2966;SDS011;1493;51.496;7.210;2023-01-31T14:12:47;16.77;;;12.33;;
2966;SDS011;1493;51.496;7.210;2023-01-31T14:18:37;16.83;;;14.30;;
2966;SDS011;1493;51.496;7.210;2023-01-31T14:27:40;18.70;;;13.00;;
2966;SDS011;1493;51.496;7.210;2023-01-31T14:30:20;19.70;;;12.07;;
2966;SDS011;1493;51.496;7.210;2023-01-31T14:33:13;15.50;;;12.30;;
2966;SDS011;1493;51.496;7.210;2023-01-31T14:42:28;16.97;;;12.37;;
2966;SDS011;1493;51.496;7.210;2023-01-31T14:45:21;13.20;;;11.17;;
2966;SDS011;1493;51.496;7.210;2023-01-31T14:48:00;16.20;;;14.60;;
2966;SDS011;1493;51.496;7.210;2023-01-31T14:50:41;18.13;;;13.73;;
2966;SDS011;1493;51.496;7.210;2023-01-31T14:53:36;19.93;;;13.30;;
2966;SDS011;1493;51.496;7.210;2023-01-31T14:56:21;23.40;;;15.73;;
2966;SDS011;1493;51.496;7.210;2023-01-31T14:59:04;19.37;;;13.43;;
2966;SDS011;1493;51.496;7.210;2023-01-31T15:01:52;17.90;;;14.57;;
2966;SDS011;1493;51.496;7.210;2023-01-31T15:04:20;18.90;;;16.17;;
2966;SDS011;1493;51.496;7.210;2023-01-31T15:06:49;22.73;;;16.57;;
2966;SDS011;1493;51.496;7.210;2023-01-31T15:09:36;15.13;;;13.53;;
2966;SDS011;1493;51.496;7.210;2023-01-31T15:12:11;18.60;;;12.97;;
2966;SDS011;1493;51.496;7.210;2023-01-31T15:15:10;16.67;;;12.70;;
2966;SDS011;1493;51.496;7.210;2023-01-31T15:17:51;16.87;;;13.00;;
2966;SDS011;1493;51.496;7.210;2023-01-31T15:20:20;17.70;;;14.27;;
2966;SDS011;1493;51.496;7.210;2023-01-31T15:22:51;16.60;;;12.83;;
2966;SDS011;1493;51.496;7.210;2023-01-31T15:25:23;19.60;;;15.40;;
2966;SDS011;1493;51.496;7.210;2023-01-31T15:27:55;24.53;;;14.67;;
2966;SDS011;1493;51.496;7.210;2023-01-31T15:30:22;19.77;;;15.00;;
2966;SDS011;1493;51.496;7.210;2023-01-31T15:32:54;25.57;;;16.40;;
2966;SDS011;1493;51.496;7.210;2023-01-31T15:35:26;23.47;;;17.27;;
2966;SDS011;1493;51.496;7.210;2023-01-31T15:37:55;25.00;;;15.63;;
2966;SDS011;1493;51.496;7.210;2023-01-31T15:40:26;22.20;;;16.33;;
2966;SDS011;1493;51.496;7.210;2023-01-31T15:42:53;25.70;;;17.10;;
2966;SDS011;1493;51.496;7.210;2023-01-31T15:45:43;26.27;;;18.73;;
2966;SDS011;1493;51.496;7.210;2023-01-31T15:48:13;23.97;;;16.73;;
2966;SDS011;1493;51.496;7.210;2023-01-31T15:50:47;29.37;;;16.53;;
2966;SDS011;1493;51.496;7.210;2023-01-31T15:53:15;23.40;;;17.83;;
2966;SDS011;1493;51.496;7.210;2023-01-31T15:55:43;25.30;;;17.90;;
2966;SDS011;1493;51.496;7.210;2023-01-31T15:58:16;21.97;;;16.90;;